createdAt,value
2022-07-29T00:02:09.335Z,6.20
2022-07-29T00:04:37.823Z,7.85
2022-07-29T00:07:06.630Z,6.47
2022-07-29T00:09:42.938Z,6.97
2022-07-29T00:12:25.184Z,7.07
2022-07-29T00:14:55.319Z,6.65
2022-07-29T00:17:23.275Z,6.05
2022-07-29T00:19:51.156Z,6.57
2022-07-29T00:22:19.102Z,6.10
2022-07-29T00:24:49.370Z,6.18
2022-07-29T00:27:17.319Z,5.95
2022-07-29T00:29:45.242Z,6.60
2022-07-29T00:32:13.153Z,6.13
2022-07-29T00:34:59.409Z,5.60
2022-07-29T00:37:27.352Z,6.00
2022-07-29T00:39:56.550Z,5.70
2022-07-29T00:42:24.499Z,6.07
2022-07-29T00:44:52.404Z,5.63
2022-07-29T00:47:20.250Z,5.90
2022-07-29T00:49:48.599Z,5.38
2022-07-29T00:52:17.362Z,6.10
2022-07-29T00:54:45.321Z,5.85
2022-07-29T00:57:14.922Z,6.53
2022-07-29T00:59:42.959Z,6.57
2022-07-29T01:02:11.290Z,6.78
2022-07-29T01:04:39.602Z,6.43
2022-07-29T01:07:08.161Z,6.22
2022-07-29T01:09:45.697Z,7.63
2022-07-29T01:12:19.714Z,7.57
2022-07-29T01:14:49.649Z,6.97
2022-07-29T01:17:23.375Z,7.15
2022-07-29T01:20:00.529Z,6.63
2022-07-29T01:22:37.398Z,7.78
2022-07-29T01:25:21.789Z,6.97
2022-07-29T01:28:10.091Z,7.22
2022-07-29T01:30:44.110Z,7.47
2022-07-29T01:33:33.216Z,7.18
2022-07-29T01:36:03.432Z,7.50
2022-07-29T01:38:31.729Z,7.50
2022-07-29T01:41:07.040Z,9.40
2022-07-29T01:43:43.918Z,7.72
2022-07-29T01:46:17.338Z,7.00
2022-07-29T01:48:49.499Z,7.53
2022-07-29T01:51:22.374Z,6.60
2022-07-29T01:53:57.394Z,6.60
2022-07-29T01:56:30.655Z,6.43
2022-07-29T01:59:00.475Z,5.72
2022-07-29T02:01:32.964Z,6.22
2022-07-29T02:04:03.657Z,4.93
2022-07-29T02:06:34.322Z,5.25
2022-07-29T02:09:04.153Z,5.57
2022-07-29T02:11:35.324Z,5.03
2022-07-29T02:14:05.693Z,5.50
2022-07-29T02:16:37.810Z,5.82
2022-07-29T02:19:06.551Z,4.40
2022-07-29T02:21:35.818Z,5.30
2022-07-29T02:24:06.624Z,5.40
2022-07-29T02:26:35.653Z,5.45
2022-07-29T02:29:04.474Z,4.78
2022-07-29T02:31:37.224Z,5.03
2022-07-29T02:34:08.002Z,5.13
2022-07-29T02:36:36.515Z,5.00
2022-07-29T02:39:06.667Z,4.93
2022-07-29T02:41:44.087Z,5.97
2022-07-29T02:44:14.493Z,6.05
2022-07-29T02:46:51.353Z,5.78
2022-07-29T02:49:27.783Z,6.65
2022-07-29T02:52:00.009Z,5.78
2022-07-29T02:54:33.109Z,6.20
2022-07-29T02:57:05.964Z,5.57
2022-07-29T02:59:38.542Z,6.88
2022-07-29T03:02:09.035Z,6.70
2022-07-29T03:04:37.770Z,5.78
2022-07-29T03:07:07.144Z,6.15
2022-07-29T03:09:36.036Z,6.40
2022-07-29T03:12:04.860Z,6.95
2022-07-29T03:14:34.399Z,6.72
2022-07-29T03:17:02.779Z,7.10
2022-07-29T03:19:33.088Z,6.68
2022-07-29T03:22:01.572Z,6.63
2022-07-29T03:24:32.117Z,6.55
2022-07-29T03:27:00.600Z,6.70
2022-07-29T03:29:33.935Z,5.60
2022-07-29T03:32:07.290Z,5.53
2022-07-29T03:34:39.100Z,5.85
2022-07-29T03:37:07.820Z,5.75
2022-07-29T03:39:41.838Z,6.03
2022-07-29T03:42:12.804Z,6.35
2022-07-29T03:44:43.590Z,5.00
2022-07-29T03:47:12.945Z,4.97
2022-07-29T03:49:43.065Z,4.85
2022-07-29T03:52:11.381Z,4.30
2022-07-29T03:54:39.299Z,4.80
2022-07-29T03:57:09.204Z,5.45
2022-07-29T03:59:38.816Z,4.40
2022-07-29T04:02:10.348Z,4.22
2022-07-29T04:04:38.630Z,4.43
2022-07-29T04:07:07.974Z,4.88
2022-07-29T04:09:35.865Z,4.45
2022-07-29T04:12:04.414Z,4.57
2022-07-29T04:14:33.915Z,5.18
2022-07-29T04:17:02.175Z,4.05
2022-07-29T04:19:30.607Z,5.22
2022-07-29T04:21:58.544Z,5.70
2022-07-29T04:24:27.878Z,5.00
2022-07-29T04:26:56.084Z,4.88
2022-07-29T04:29:23.954Z,4.10
2022-07-29T04:31:51.883Z,4.53
2022-07-29T04:34:20.279Z,4.85
2022-07-29T04:36:48.494Z,4.18
2022-07-29T04:39:22.160Z,4.00
2022-07-29T04:41:52.483Z,4.40
2022-07-29T04:44:28.392Z,4.05
2022-07-29T04:46:58.150Z,4.25
2022-07-29T04:49:26.403Z,4.32
2022-07-29T04:51:54.400Z,4.07
2022-07-29T04:54:22.325Z,3.95
2022-07-29T04:56:51.761Z,4.05
2022-07-29T04:59:19.628Z,3.88
2022-07-29T05:01:47.560Z,3.45
2022-07-29T05:04:15.702Z,4.20
2022-07-29T05:06:43.828Z,3.60
2022-07-29T05:09:11.679Z,3.58
2022-07-29T05:11:39.554Z,3.75
2022-07-29T05:14:08.782Z,3.47
2022-07-29T05:16:36.679Z,3.00
2022-07-29T05:19:04.606Z,4.03
2022-07-29T05:21:32.484Z,3.80
2022-07-29T05:24:00.330Z,3.40
2022-07-29T05:26:28.188Z,3.53
2022-07-29T05:28:56.074Z,3.13
2022-07-29T05:31:25.346Z,3.60
2022-07-29T05:33:53.327Z,3.40
2022-07-29T05:36:21.248Z,4.03
2022-07-29T05:38:49.132Z,3.55
2022-07-29T05:41:17.504Z,3.85
2022-07-29T05:43:45.418Z,3.60
2022-07-29T05:46:14.928Z,4.07
2022-07-29T05:48:44.221Z,3.45
2022-07-29T05:51:12.146Z,4.10
2022-07-29T05:53:40.495Z,3.95
2022-07-29T05:56:09.247Z,5.10
2022-07-29T05:58:37.170Z,5.05
2022-07-29T06:01:05.216Z,5.10
2022-07-29T06:03:33.176Z,4.20
2022-07-29T06:06:02.453Z,5.63
2022-07-29T06:08:30.406Z,4.97
2022-07-29T06:10:58.382Z,4.68
2022-07-29T06:13:26.364Z,5.05
2022-07-29T06:15:54.362Z,5.05
2022-07-29T06:18:24.718Z,4.88
2022-07-29T06:20:52.673Z,5.05
2022-07-29T06:23:22.712Z,4.70
2022-07-29T06:25:50.608Z,5.00
2022-07-29T06:28:18.613Z,4.65
2022-07-29T06:30:46.588Z,4.35
2022-07-29T06:33:19.034Z,4.45
2022-07-29T06:35:53.598Z,4.57
2022-07-29T06:38:30.001Z,5.10
2022-07-29T06:41:02.101Z,4.40
2022-07-29T06:43:32.554Z,4.60
2022-07-29T06:46:02.316Z,4.70
2022-07-29T06:48:30.651Z,4.80
2022-07-29T06:50:58.688Z,4.50
2022-07-29T06:53:28.015Z,4.75
2022-07-29T06:55:56.093Z,4.60
2022-07-29T06:58:24.008Z,5.00
2022-07-29T07:00:52.071Z,4.72
2022-07-29T07:03:21.418Z,4.45
2022-07-29T07:05:49.439Z,5.22
2022-07-29T07:08:17.767Z,4.85
2022-07-29T07:10:47.432Z,5.10
2022-07-29T07:13:18.134Z,4.30
2022-07-29T07:15:46.430Z,4.30
2022-07-29T07:18:14.364Z,5.38
2022-07-29T07:20:42.682Z,4.82
2022-07-29T07:23:10.632Z,5.00
2022-07-29T07:25:38.653Z,4.82
2022-07-29T07:28:08.205Z,4.05
2022-07-29T07:30:36.246Z,4.10
2022-07-29T07:33:04.609Z,4.38
2022-07-29T07:35:32.924Z,4.40
2022-07-29T07:38:01.436Z,4.82
2022-07-29T07:40:29.420Z,4.30
2022-07-29T07:42:57.347Z,3.97
2022-07-29T07:45:26.744Z,3.75
2022-07-29T07:47:54.646Z,3.97
2022-07-29T07:50:22.660Z,4.35
2022-07-29T07:52:52.158Z,4.22
2022-07-29T07:55:20.943Z,3.88
2022-07-29T07:57:49.305Z,5.05
2022-07-29T08:00:18.807Z,3.97
2022-07-29T08:02:49.404Z,3.97
2022-07-29T08:05:18.670Z,3.78
2022-07-29T08:07:47.829Z,3.60
2022-07-29T08:10:16.064Z,3.55
2022-07-29T08:12:45.792Z,4.10
2022-07-29T08:15:13.992Z,3.42
2022-07-29T08:17:42.665Z,2.97
2022-07-29T08:20:13.083Z,3.28
2022-07-29T08:22:40.962Z,4.20
2022-07-29T08:25:09.285Z,3.58
2022-07-29T08:27:44.543Z,3.60
2022-07-29T08:30:13.094Z,3.80
2022-07-29T08:32:53.844Z,3.08
2022-07-29T08:35:24.681Z,3.67
2022-07-29T08:37:52.909Z,4.00
2022-07-29T08:40:32.074Z,3.25
2022-07-29T08:43:01.163Z,4.28
2022-07-29T08:45:31.435Z,4.05
2022-07-29T08:47:59.421Z,4.00
2022-07-29T08:50:28.661Z,3.35
2022-07-29T08:52:59.879Z,3.10
2022-07-29T08:55:28.689Z,4.45
2022-07-29T08:57:57.340Z,3.00
2022-07-29T09:00:27.096Z,3.53
2022-07-29T09:02:59.720Z,3.00
2022-07-29T09:05:30.135Z,3.63
2022-07-29T09:07:58.347Z,3.00
2022-07-29T09:10:26.438Z,3.22
2022-07-29T09:12:56.022Z,2.80
2022-07-29T09:15:23.983Z,3.20
2022-07-29T09:17:52.063Z,3.05
2022-07-29T09:20:23.189Z,3.80
2022-07-29T09:22:54.456Z,3.20
2022-07-29T09:25:35.616Z,3.20
2022-07-29T09:28:13.549Z,3.35
2022-07-29T09:30:52.997Z,3.45
2022-07-29T09:33:22.450Z,3.38
2022-07-29T09:36:02.196Z,3.33
2022-07-29T09:38:34.285Z,3.03
2022-07-29T09:41:05.927Z,3.50
2022-07-29T09:43:34.485Z,4.05
2022-07-29T09:46:12.855Z,3.25
2022-07-29T09:48:40.895Z,3.45
2022-07-29T09:51:20.765Z,3.75
2022-07-29T09:53:53.030Z,3.58
2022-07-29T09:56:21.662Z,3.63
2022-07-29T09:58:49.548Z,3.42
2022-07-29T10:01:17.591Z,3.90
2022-07-29T10:03:55.119Z,3.70
2022-07-29T10:08:53.289Z,3.25
2022-07-29T10:11:21.894Z,3.45
2022-07-29T10:13:50.541Z,2.83
2022-07-29T10:16:19.028Z,3.72
2022-07-29T10:18:47.789Z,4.93
2022-07-29T10:21:35.513Z,3.53
2022-07-29T10:24:06.962Z,3.00
2022-07-29T10:26:43.546Z,2.80
2022-07-29T10:29:11.447Z,2.85
2022-07-29T10:31:47.038Z,2.20
2022-07-29T10:34:24.876Z,2.60
2022-07-29T10:37:01.876Z,2.67
2022-07-29T10:39:48.876Z,2.80
2022-07-29T10:42:29.805Z,3.42
2022-07-29T10:45:05.581Z,3.63
2022-07-29T10:47:35.440Z,4.43
2022-07-29T10:50:05.448Z,4.78
2022-07-29T10:52:55.046Z,5.32
2022-07-29T10:55:43.680Z,5.65
2022-07-29T11:00:49.533Z,6.10
2022-07-29T11:03:49.249Z,7.55
2022-07-29T11:06:26.182Z,6.43
2022-07-29T11:09:25.796Z,6.18
2022-07-29T11:12:49.950Z,7.80
2022-07-29T11:15:21.723Z,7.75
2022-07-29T11:18:14.965Z,6.60
2022-07-29T11:20:48.196Z,8.50
2022-07-29T11:23:27.484Z,6.75
2022-07-29T11:26:21.019Z,7.35
2022-07-29T11:29:02.908Z,7.10
2022-07-29T11:31:37.366Z,6.30
2022-07-29T11:34:22.793Z,7.35
2022-07-29T11:37:17.763Z,8.68
2022-07-29T11:39:47.736Z,6.63
2022-07-29T11:42:42.062Z,6.93
2022-07-29T11:45:42.916Z,7.07
2022-07-29T11:48:27.683Z,8.48
2022-07-29T11:50:55.135Z,7.18
2022-07-29T11:53:28.927Z,7.80
2022-07-29T11:56:02.656Z,6.10
2022-07-29T11:58:31.790Z,6.25
2022-07-29T12:01:05.034Z,5.30
2022-07-29T12:03:36.171Z,5.68
2022-07-29T12:06:07.577Z,5.45
2022-07-29T12:08:44.168Z,5.45
2022-07-29T12:11:20.765Z,5.40
2022-07-29T12:13:50.506Z,4.78
2022-07-29T12:16:25.106Z,5.40
2022-07-29T12:19:00.002Z,4.47
2022-07-29T12:21:29.468Z,4.63
2022-07-29T12:24:03.477Z,5.32
2022-07-29T12:26:36.641Z,4.45
2022-07-29T12:29:08.491Z,4.32
2022-07-29T12:31:41.882Z,4.00
2022-07-29T12:34:13.109Z,4.43
2022-07-29T12:36:42.310Z,4.65
2022-07-29T12:39:11.159Z,4.32
2022-07-29T12:41:39.568Z,4.38
2022-07-29T12:44:07.550Z,4.75
2022-07-29T12:46:35.503Z,5.30
2022-07-29T12:49:05.526Z,6.00
2022-07-29T12:51:35.063Z,6.28
2022-07-29T12:54:08.891Z,6.95
2022-07-29T12:56:45.011Z,7.90
2022-07-29T12:59:15.151Z,7.13
2022-07-29T13:01:43.097Z,19.90
2022-07-29T13:04:12.566Z,8.25
2022-07-29T13:06:41.888Z,8.90
2022-07-29T13:09:12.592Z,9.25
2022-07-29T13:11:46.517Z,11.10
2022-07-29T13:14:32.009Z,11.75
2022-07-29T13:17:06.427Z,12.70
2022-07-29T13:19:42.160Z,12.30
2022-07-29T13:22:11.009Z,15.07
2022-07-29T13:24:50.331Z,21.40
2022-07-29T13:27:18.683Z,47.63
2022-07-29T13:29:47.371Z,17.00
2022-07-29T13:32:15.806Z,16.95
2022-07-29T13:34:45.111Z,12.18
2022-07-29T13:37:13.081Z,12.40
2022-07-29T13:39:41.000Z,12.90
2022-07-29T13:42:11.036Z,9.82
2022-07-29T13:44:39.141Z,10.18
2022-07-29T13:47:07.254Z,9.95
2022-07-29T13:49:35.545Z,11.02
2022-07-29T13:52:08.175Z,8.70
2022-07-29T13:54:42.005Z,8.45
2022-07-29T13:57:11.624Z,7.43
2022-07-29T13:59:40.246Z,8.80
2022-07-29T14:02:08.276Z,7.65
2022-07-29T14:04:36.637Z,6.93
2022-07-29T14:07:09.066Z,7.85
2022-07-29T14:09:41.636Z,7.10
2022-07-29T14:12:10.659Z,7.57
2022-07-29T14:14:38.638Z,7.20
2022-07-29T14:17:08.118Z,8.65
2022-07-29T14:19:38.840Z,7.32
2022-07-29T14:22:11.007Z,6.82
2022-07-29T14:24:39.648Z,8.52
2022-07-29T14:27:08.594Z,7.60
2022-07-29T14:29:38.307Z,7.20
2022-07-29T14:32:07.854Z,8.02
2022-07-29T14:34:36.024Z,7.35
2022-07-29T14:37:06.081Z,6.93
2022-07-29T14:39:42.139Z,7.78
2022-07-29T14:42:11.528Z,6.85
2022-07-29T14:44:40.640Z,6.45
2022-07-29T14:47:09.600Z,6.70
2022-07-29T14:49:37.765Z,7.65
2022-07-29T14:52:06.388Z,6.07
2022-07-29T14:54:35.620Z,5.93
2022-07-29T14:57:03.517Z,6.95
2022-07-29T14:59:31.379Z,7.10
2022-07-29T15:01:59.547Z,7.53
2022-07-29T15:04:27.571Z,6.97
2022-07-29T15:06:55.448Z,7.38
2022-07-29T15:09:24.060Z,7.78
2022-07-29T15:11:53.264Z,7.65
2022-07-29T15:14:21.188Z,7.20
2022-07-29T15:16:49.252Z,6.72
2022-07-29T15:19:20.566Z,6.45
2022-07-29T15:21:49.246Z,7.10
2022-07-29T15:24:18.543Z,6.55
2022-07-29T15:26:46.535Z,7.70
2022-07-29T15:29:16.389Z,7.60
2022-07-29T15:31:44.380Z,7.10
2022-07-29T15:34:12.581Z,6.88
2022-07-29T15:36:56.029Z,6.72
2022-07-29T15:39:23.971Z,6.28
2022-07-29T15:41:52.382Z,5.68
2022-07-29T15:44:22.330Z,6.15
2022-07-29T15:47:06.066Z,6.30
2022-07-29T15:49:47.787Z,5.50
2022-07-29T15:52:18.618Z,5.93
2022-07-29T15:54:46.635Z,6.03
2022-07-29T15:57:15.078Z,5.75
2022-07-29T15:59:44.258Z,7.53
2022-07-29T16:02:12.197Z,6.45
2022-07-29T16:04:40.286Z,6.18
2022-07-29T16:07:08.402Z,6.85
2022-07-29T16:09:36.314Z,7.00
2022-07-29T16:12:14.851Z,6.13
2022-07-29T16:14:45.162Z,5.88
2022-07-29T16:17:14.499Z,6.20
2022-07-29T16:19:43.625Z,5.80
2022-07-29T16:22:11.898Z,6.15
2022-07-29T16:24:39.938Z,5.82
2022-07-29T16:27:08.524Z,6.68
2022-07-29T16:29:37.630Z,7.35
2022-07-29T16:32:07.705Z,7.28
2022-07-29T16:34:35.814Z,7.05
2022-07-29T16:37:04.301Z,7.18
2022-07-29T16:39:32.704Z,6.72
2022-07-29T16:42:03.060Z,6.30
2022-07-29T16:44:33.023Z,6.93
2022-07-29T16:47:01.285Z,6.85
2022-07-29T16:49:31.581Z,6.32
2022-07-29T16:51:59.514Z,6.82
2022-07-29T16:54:27.424Z,6.50
2022-07-29T16:56:55.965Z,6.25
2022-07-29T16:59:24.045Z,5.95
2022-07-29T17:01:52.029Z,5.95
2022-07-29T17:04:20.006Z,6.10
2022-07-29T17:06:52.495Z,6.07
2022-07-29T17:09:21.021Z,5.70
2022-07-29T17:11:54.862Z,6.32
2022-07-29T17:14:24.750Z,5.55
2022-07-29T17:17:01.029Z,4.40
2022-07-29T17:19:30.896Z,5.03
2022-07-29T17:22:10.126Z,4.53
2022-07-29T17:24:41.042Z,4.93
2022-07-29T17:27:09.691Z,4.45
2022-07-29T17:29:37.571Z,3.90
2022-07-29T17:32:07.540Z,4.32
2022-07-29T17:34:35.982Z,3.72
2022-07-29T17:37:05.736Z,4.57
2022-07-29T17:39:35.092Z,4.43
2022-07-29T17:42:03.048Z,4.60
2022-07-29T17:44:30.998Z,4.60
2022-07-29T17:47:00.751Z,4.10
2022-07-29T17:49:29.163Z,4.28
2022-07-29T17:52:00.767Z,4.90
2022-07-29T17:54:30.346Z,4.93
2022-07-29T17:56:58.473Z,3.50
2022-07-29T17:59:27.037Z,4.15
2022-07-29T18:01:54.948Z,4.00
2022-07-29T18:04:23.531Z,3.78
2022-07-29T18:06:51.724Z,3.15
2022-07-29T18:09:19.825Z,3.28
2022-07-29T18:11:49.367Z,3.55
2022-07-29T18:14:17.353Z,3.42
2022-07-29T18:16:45.361Z,3.20
2022-07-29T18:19:13.257Z,2.92
2022-07-29T18:21:52.035Z,3.20
2022-07-29T18:24:25.233Z,3.80
2022-07-29T18:26:54.681Z,2.83
2022-07-29T18:29:22.891Z,4.13
2022-07-29T18:31:50.988Z,3.72
2022-07-29T18:34:18.875Z,3.35
2022-07-29T18:36:46.912Z,4.38
2022-07-29T18:39:20.328Z,2.22
2022-07-29T18:41:51.022Z,2.72
2022-07-29T18:44:22.606Z,3.25
2022-07-29T18:46:51.364Z,2.75
2022-07-29T18:49:19.550Z,2.72
2022-07-29T18:51:47.565Z,3.22
2022-07-29T18:54:15.439Z,2.50
2022-07-29T18:56:43.275Z,3.13
2022-07-29T18:59:11.447Z,3.13
2022-07-29T19:01:40.735Z,3.08
2022-07-29T19:04:08.663Z,2.50
2022-07-29T19:06:36.680Z,3.20
2022-07-29T19:09:05.109Z,3.20
2022-07-29T19:11:32.941Z,3.10
2022-07-29T19:14:00.832Z,2.97
2022-07-29T19:16:28.827Z,2.63
2022-07-29T19:18:58.285Z,3.55
2022-07-29T19:21:26.164Z,2.67
2022-07-29T19:24:01.474Z,3.30
2022-07-29T19:26:36.387Z,3.03
2022-07-29T19:29:05.055Z,3.30
2022-07-29T19:31:33.167Z,2.58
2022-07-29T19:34:02.482Z,3.03
2022-07-29T19:36:31.282Z,2.78
2022-07-29T19:39:00.047Z,2.97
2022-07-29T19:41:28.310Z,2.58
2022-07-29T19:43:56.372Z,2.65
2022-07-29T19:46:25.188Z,2.42
2022-07-29T19:48:53.871Z,2.50
2022-07-29T19:51:23.593Z,2.92
2022-07-29T19:53:51.736Z,3.40
2022-07-29T19:56:19.604Z,2.75
2022-07-29T19:58:47.529Z,2.80
2022-07-29T20:01:16.666Z,2.40
2022-07-29T20:03:44.741Z,2.63
2022-07-29T20:06:13.208Z,2.92
2022-07-29T20:08:42.441Z,3.22
2022-07-29T20:11:10.391Z,2.78
2022-07-29T20:13:38.454Z,2.83
2022-07-29T20:16:08.220Z,3.13
2022-07-29T20:18:36.269Z,2.50
2022-07-29T20:21:04.889Z,2.92
2022-07-29T20:23:33.609Z,2.47
2022-07-29T20:26:06.130Z,2.50
2022-07-29T20:28:37.115Z,2.35
2022-07-29T20:31:05.094Z,1.83
2022-07-29T20:33:33.052Z,2.60
2022-07-29T20:36:00.968Z,2.78
2022-07-29T20:38:30.561Z,2.70
2022-07-29T20:40:58.706Z,3.10
2022-07-29T20:43:28.054Z,2.78
2022-07-29T20:45:56.105Z,2.95
2022-07-29T20:48:24.165Z,3.10
2022-07-29T20:50:52.896Z,3.05
2022-07-29T20:53:20.983Z,3.30
2022-07-29T20:55:48.970Z,3.55
2022-07-29T20:58:17.246Z,2.92
2022-07-29T21:00:46.465Z,3.58
2022-07-29T21:03:14.458Z,3.30
2022-07-29T21:05:43.916Z,3.30
2022-07-29T21:08:12.138Z,2.45
2022-07-29T21:10:40.110Z,3.45
2022-07-29T21:13:07.984Z,2.92
2022-07-29T21:15:36.021Z,2.95
2022-07-29T21:18:09.203Z,2.90
2022-07-29T21:20:37.081Z,3.30
2022-07-29T21:23:05.129Z,3.20
2022-07-29T21:25:34.347Z,2.85
2022-07-29T21:28:19.681Z,3.20
2022-07-29T21:30:47.534Z,3.15
2022-07-29T21:33:16.836Z,3.13
2022-07-29T21:36:06.949Z,2.70
2022-07-29T21:38:33.329Z,2.55
2022-07-29T21:41:01.856Z,3.08
2022-07-29T21:43:29.820Z,3.28
2022-07-29T21:45:58.087Z,3.47
2022-07-29T21:48:28.974Z,2.90
2022-07-29T21:50:57.599Z,2.15
2022-07-29T21:53:27.815Z,3.22
2022-07-29T21:55:55.738Z,2.47
2022-07-29T21:58:24.642Z,2.45
2022-07-29T22:00:53.810Z,3.00
2022-07-29T22:03:21.877Z,2.75
2022-07-29T22:05:51.085Z,3.10
2022-07-29T22:08:21.164Z,2.60
2022-07-29T22:10:49.051Z,2.38
2022-07-29T22:13:16.966Z,3.13
2022-07-29T22:15:47.183Z,2.58
2022-07-29T22:18:19.566Z,3.00
2022-07-29T22:20:48.954Z,2.65
2022-07-29T22:23:18.226Z,2.80
2022-07-29T22:25:46.088Z,2.83
2022-07-29T22:28:13.966Z,2.92
2022-07-29T22:30:41.923Z,3.10
2022-07-29T22:33:09.822Z,2.88
2022-07-29T22:35:45.683Z,3.17
2022-07-29T22:38:18.468Z,3.60
2022-07-29T22:40:46.913Z,3.25
2022-07-29T22:43:16.688Z,3.70
2022-07-29T22:45:44.667Z,3.35
2022-07-29T22:48:12.717Z,3.20
2022-07-29T22:50:40.747Z,3.50
2022-07-29T22:53:08.727Z,3.30
2022-07-29T22:55:37.945Z,4.00
2022-07-29T22:58:05.871Z,3.55
2022-07-29T23:00:33.924Z,4.28
2022-07-29T23:03:01.832Z,3.92
2022-07-29T23:05:29.692Z,4.10
2022-07-29T23:07:57.548Z,4.13
2022-07-29T23:10:25.617Z,4.18
2022-07-29T23:12:54.872Z,4.40
2022-07-29T23:15:22.958Z,4.28
2022-07-29T23:17:50.832Z,4.50
2022-07-29T23:20:19.106Z,3.95
2022-07-29T23:22:46.953Z,3.50
2022-07-29T23:25:14.839Z,3.10
2022-07-29T23:27:42.707Z,3.47
2022-07-29T23:30:13.436Z,3.47
2022-07-29T23:32:41.302Z,3.10
2022-07-29T23:35:10.476Z,3.90
2022-07-29T23:37:39.316Z,3.47
2022-07-29T23:40:13.664Z,3.40
2022-07-29T23:42:43.121Z,3.25
2022-07-29T23:45:13.510Z,3.90
2022-07-29T23:47:41.650Z,3.90
2022-07-29T23:50:13.131Z,3.38
2022-07-29T23:52:41.272Z,3.85
2022-07-29T23:55:37.465Z,3.40
2022-07-29T23:57:57.767Z,3.22
